Share

Beja, Tunisia

9:34 AM CET on April 25, 2014 (GMT +0100)
Jendouba (DTTN) Elev 472 ft | 36.48 °N, 8.80 °E | Change Station

Current weather conditions updated 34 minutes ago

Partly Cloudy
Partly Cloudy
64 °F
Feels Like 64 °F
N
4
Wind Variable Wind from NNW
Sunrise 5:36 AM
Sunset 7:06 PM
Moon Waning Crescent

Today is forecast to be Warmer than yesterday. Afternoon light rain.

Pressure 29.95 in
Visibility 6.2 miles
Clouds Few 2000 ft
Dew Point 55 °F
Humidity 73%
Rainfall 0.00 in
Snow Depth Not available.
UV 5 out of 16
Pollen Not available.
Air Quality Not available.
Flu Activity Not available.
METAR DTTN 250800Z 33003KT 9999 FEW020 18/13 Q1014

More Conditions Fewer Conditions

Pressure 29.95 in
Visibility 6.2 miles
Clouds Few 2000 ft
Dew Point 55 °F
Humidity 73%
Rainfall 0.00 in
Snow Depth Not available.
UV 5 out of 16
Pollen Not available.
Air Quality Not available.
Flu Activity Not available.
METAR DTTN 250800Z 33003KT 9999 FEW020 18/13 Q1014

More Conditions Fewer Conditions

10-Day Weather Forecast

Almanac

Astronomy

Apr. 25, 2014 Rise Set
Actual Time 5:36 AM CET 7:06 PM CET
Civil Twilight 5:09 AM CET 7:33 PM CET
Nautical Twilight 4:36 AM CET 8:06 PM CET
Astronomical Twilight 4:02 AM CET 8:41 PM CET
Moon 3:08 AM CET 3:16 PM CET
Length of Visible Light 14h 24m
Length of Day
13h 29m
Tomorrow will be 2m 6s longer.
Waning Crescent, 18% of the Moon is Illuminated
Today
Waning Crescent
Apr 29
New
May 6
First Quarter
May 14
Full
May 21
Last Quarter

Yesterday's Extremes

Country Highs Country Lows

Community

  • Deer in evening light
    Deer in evening light
  • Critter
    Critter
  • Jone Runs Falls
    Jone Runs Falls
  • Easter in Shenandoah National Park
    Easter in Shenandoah National Park
  • Sunset at Apalachicola Bay, Florida
    Sunset at Apalachicola Bay, Florida

WunderPhotos

Upload Photos

1,704,874 photos uploaded!

WunderBlogs® & News

Nearby

Snow Depth

Not available.

Coastal Water Temperatures

Place Temperature
No Stations Reporting

Earthquake Activity

City Distance Mag. Time & Date
No recent earthquake activity has been reported nearby.
Minimum magnitude displayed is 2.5.

Nearby Weather Stations

There are no personal weather stations in this area.

What do you think?

We're not finished. Please let us know what you like, what you don't like, and what you are still missing.